sensor_id;sensor_type;location;lat;lon;timestamp;P1;durP1;ratioP1;P2;durP2;ratioP2
8001;SDS011;4046;48.774;8.732;2023-07-08T00:00:20;4.90;;;4.40;;
8001;SDS011;4046;48.774;8.732;2023-07-08T00:02:47;3.90;;;3.60;;
8001;SDS011;4046;48.774;8.732;2023-07-08T00:05:14;4.20;;;3.90;;
8001;SDS011;4046;48.774;8.732;2023-07-08T00:07:41;5.30;;;4.50;;
8001;SDS011;4046;48.774;8.732;2023-07-08T00:12:50;4.23;;;3.87;;
8001;SDS011;4046;48.774;8.732;2023-07-08T00:15:17;4.37;;;4.03;;
8001;SDS011;4046;48.774;8.732;2023-07-08T00:17:46;3.80;;;3.50;;
8001;SDS011;4046;48.774;8.732;2023-07-08T00:20:13;4.10;;;3.80;;
8001;SDS011;4046;48.774;8.732;2023-07-08T00:22:42;4.50;;;4.07;;
8001;SDS011;4046;48.774;8.732;2023-07-08T00:25:12;3.80;;;3.50;;
8001;SDS011;4046;48.774;8.732;2023-07-08T00:27:40;4.53;;;3.77;;
8001;SDS011;4046;48.774;8.732;2023-07-08T00:30:12;4.17;;;3.87;;
8001;SDS011;4046;48.774;8.732;2023-07-08T00:32:47;4.50;;;4.10;;
8001;SDS011;4046;48.774;8.732;2023-07-08T00:35:19;4.03;;;3.73;;
8001;SDS011;4046;48.774;8.732;2023-07-08T00:37:46;3.83;;;3.53;;
8001;SDS011;4046;48.774;8.732;2023-07-08T00:40:13;4.10;;;3.80;;
8001;SDS011;4046;48.774;8.732;2023-07-08T00:42:42;4.20;;;3.90;;
8001;SDS011;4046;48.774;8.732;2023-07-08T00:45:15;5.17;;;4.70;;
8001;SDS011;4046;48.774;8.732;2023-07-08T00:47:49;4.50;;;4.10;;
8001;SDS011;4046;48.774;8.732;2023-07-08T00:50:16;4.67;;;4.37;;
8001;SDS011;4046;48.774;8.732;2023-07-08T00:52:44;4.60;;;4.20;;
8001;SDS011;4046;48.774;8.732;2023-07-08T00:55:11;4.50;;;4.20;;
8001;SDS011;4046;48.774;8.732;2023-07-08T00:57:39;4.33;;;4.03;;
8001;SDS011;4046;48.774;8.732;2023-07-08T01:00:09;3.73;;;3.43;;
8001;SDS011;4046;48.774;8.732;2023-07-08T01:02:40;4.50;;;4.10;;
8001;SDS011;4046;48.774;8.732;2023-07-08T01:05:15;4.50;;;4.10;;
8001;SDS011;4046;48.774;8.732;2023-07-08T01:07:45;5.10;;;4.60;;
8001;SDS011;4046;48.774;8.732;2023-07-08T01:10:22;4.53;;;4.13;;
8001;SDS011;4046;48.774;8.732;2023-07-08T01:12:54;4.90;;;4.47;;
8001;SDS011;4046;48.774;8.732;2023-07-08T01:15:25;3.93;;;3.63;;
8001;SDS011;4046;48.774;8.732;2023-07-08T01:18:00;5.03;;;4.53;;
8001;SDS011;4046;48.774;8.732;2023-07-08T01:20:27;4.27;;;3.97;;
8001;SDS011;4046;48.774;8.732;2023-07-08T01:22:53;4.07;;;3.77;;
8001;SDS011;4046;48.774;8.732;2023-07-08T01:25:19;4.93;;;4.53;;
8001;SDS011;4046;48.774;8.732;2023-07-08T01:27:46;4.63;;;4.23;;
8001;SDS011;4046;48.774;8.732;2023-07-08T01:30:14;4.70;;;4.30;;
8001;SDS011;4046;48.774;8.732;2023-07-08T01:32:45;3.70;;;3.40;;
8001;SDS011;4046;48.774;8.732;2023-07-08T01:35:15;4.80;;;4.40;;
8001;SDS011;4046;48.774;8.732;2023-07-08T01:37:43;4.90;;;4.53;;
8001;SDS011;4046;48.774;8.732;2023-07-08T01:42:54;4.40;;;4.10;;
8001;SDS011;4046;48.774;8.732;2023-07-08T01:45:21;4.77;;;4.37;;
8001;SDS011;4046;48.774;8.732;2023-07-08T01:47:56;4.27;;;3.97;;
8001;SDS011;4046;48.774;8.732;2023-07-08T01:50:26;4.50;;;4.20;;
8001;SDS011;4046;48.774;8.732;2023-07-08T01:52:53;6.03;;;4.80;;
8001;SDS011;4046;48.774;8.732;2023-07-08T01:55:24;5.00;;;4.60;;
8001;SDS011;4046;48.774;8.732;2023-07-08T01:57:54;4.90;;;4.50;;
8001;SDS011;4046;48.774;8.732;2023-07-08T02:00:20;4.87;;;4.47;;
8001;SDS011;4046;48.774;8.732;2023-07-08T02:02:47;6.43;;;4.50;;
8001;SDS011;4046;48.774;8.732;2023-07-08T02:05:13;4.90;;;4.50;;
8001;SDS011;4046;48.774;8.732;2023-07-08T02:07:38;5.10;;;4.70;;
8001;SDS011;4046;48.774;8.732;2023-07-08T02:10:04;4.23;;;3.93;;
8001;SDS011;4046;48.774;8.732;2023-07-08T02:12:31;5.10;;;4.70;;
8001;SDS011;4046;48.774;8.732;2023-07-08T02:14:59;4.70;;;4.30;;
8001;SDS011;4046;48.774;8.732;2023-07-08T02:17:26;4.90;;;4.50;;
8001;SDS011;4046;48.774;8.732;2023-07-08T02:19:54;4.87;;;4.47;;
8001;SDS011;4046;48.774;8.732;2023-07-08T02:22:20;5.23;;;4.83;;
8001;SDS011;4046;48.774;8.732;2023-07-08T02:24:46;4.70;;;4.40;;
8001;SDS011;4046;48.774;8.732;2023-07-08T02:27:13;4.97;;;4.50;;
8001;SDS011;4046;48.774;8.732;2023-07-08T02:29:39;5.00;;;4.50;;
8001;SDS011;4046;48.774;8.732;2023-07-08T02:32:05;5.20;;;4.70;;
8001;SDS011;4046;48.774;8.732;2023-07-08T02:34:31;5.13;;;4.73;;
8001;SDS011;4046;48.774;8.732;2023-07-08T02:36:57;5.27;;;4.87;;
8001;SDS011;4046;48.774;8.732;2023-07-08T02:39:24;4.80;;;4.40;;
8001;SDS011;4046;48.774;8.732;2023-07-08T02:41:49;5.00;;;4.60;;
8001;SDS011;4046;48.774;8.732;2023-07-08T02:44:15;5.00;;;4.60;;
8001;SDS011;4046;48.774;8.732;2023-07-08T02:46:41;5.00;;;4.60;;
8001;SDS011;4046;48.774;8.732;2023-07-08T02:49:06;4.63;;;4.20;;
8001;SDS011;4046;48.774;8.732;2023-07-08T02:51:32;5.00;;;4.57;;
8001;SDS011;4046;48.774;8.732;2023-07-08T02:53:58;5.30;;;4.90;;
8001;SDS011;4046;48.774;8.732;2023-07-08T02:56:24;5.53;;;5.00;;
8001;SDS011;4046;48.774;8.732;2023-07-08T02:58:51;5.17;;;4.77;;
8001;SDS011;4046;48.774;8.732;2023-07-08T03:01:18;4.97;;;4.57;;
8001;SDS011;4046;48.774;8.732;2023-07-08T03:03:44;5.03;;;4.60;;
8001;SDS011;4046;48.774;8.732;2023-07-08T03:06:11;5.00;;;4.60;;
8001;SDS011;4046;48.774;8.732;2023-07-08T03:08:37;5.27;;;4.87;;
8001;SDS011;4046;48.774;8.732;2023-07-08T03:11:04;5.10;;;4.70;;
8001;SDS011;4046;48.774;8.732;2023-07-08T03:13:31;5.00;;;4.50;;
8001;SDS011;4046;48.774;8.732;2023-07-08T03:15:58;5.00;;;4.60;;
8001;SDS011;4046;48.774;8.732;2023-07-08T03:18:25;4.40;;;4.10;;
8001;SDS011;4046;48.774;8.732;2023-07-08T03:20:55;4.87;;;4.47;;
8001;SDS011;4046;48.774;8.732;2023-07-08T03:23:22;5.70;;;4.80;;
8001;SDS011;4046;48.774;8.732;2023-07-08T03:25:49;4.30;;;4.00;;
8001;SDS011;4046;48.774;8.732;2023-07-08T03:28:15;5.80;;;5.30;;
8001;SDS011;4046;48.774;8.732;2023-07-08T03:30:41;4.90;;;4.50;;
8001;SDS011;4046;48.774;8.732;2023-07-08T03:33:08;5.50;;;5.00;;
8001;SDS011;4046;48.774;8.732;2023-07-08T03:35:34;4.77;;;4.37;;
8001;SDS011;4046;48.774;8.732;2023-07-08T03:38:01;5.00;;;4.60;;
8001;SDS011;4046;48.774;8.732;2023-07-08T03:40:28;5.30;;;4.80;;
8001;SDS011;4046;48.774;8.732;2023-07-08T03:42:54;4.73;;;4.23;;
8001;SDS011;4046;48.774;8.732;2023-07-08T03:45:20;5.63;;;5.23;;
8001;SDS011;4046;48.774;8.732;2023-07-08T03:47:46;5.10;;;4.70;;
8001;SDS011;4046;48.774;8.732;2023-07-08T03:50:19;5.20;;;4.77;;
8001;SDS011;4046;48.774;8.732;2023-07-08T03:52:49;5.80;;;5.30;;
8001;SDS011;4046;48.774;8.732;2023-07-08T03:55:17;5.40;;;4.97;;
8001;SDS011;4046;48.774;8.732;2023-07-08T03:57:44;5.77;;;5.27;;
8001;SDS011;4046;48.774;8.732;2023-07-08T04:00:09;4.70;;;4.40;;
8001;SDS011;4046;48.774;8.732;2023-07-08T04:02:39;5.67;;;5.20;;
8001;SDS011;4046;48.774;8.732;2023-07-08T04:05:06;5.30;;;4.80;;
8001;SDS011;4046;48.774;8.732;2023-07-08T04:07:34;4.80;;;4.40;;
8001;SDS011;4046;48.774;8.732;2023-07-08T04:10:00;5.17;;;4.70;;
8001;SDS011;4046;48.774;8.732;2023-07-08T04:12:26;5.77;;;5.27;;
8001;SDS011;4046;48.774;8.732;2023-07-08T04:14:52;5.57;;;5.07;;
8001;SDS011;4046;48.774;8.732;2023-07-08T04:17:20;5.27;;;4.87;;
8001;SDS011;4046;48.774;8.732;2023-07-08T04:19:48;4.83;;;4.43;;
8001;SDS011;4046;48.774;8.732;2023-07-08T04:22:15;6.00;;;4.80;;
8001;SDS011;4046;48.774;8.732;2023-07-08T04:24:40;5.30;;;4.90;;
8001;SDS011;4046;48.774;8.732;2023-07-08T04:27:07;5.77;;;5.27;;
8001;SDS011;4046;48.774;8.732;2023-07-08T04:29:37;5.37;;;4.97;;
8001;SDS011;4046;48.774;8.732;2023-07-08T04:32:03;5.23;;;4.83;;
8001;SDS011;4046;48.774;8.732;2023-07-08T04:34:29;5.70;;;5.20;;
8001;SDS011;4046;48.774;8.732;2023-07-08T04:36:57;4.80;;;4.40;;
8001;SDS011;4046;48.774;8.732;2023-07-08T04:39:23;4.60;;;4.20;;
8001;SDS011;4046;48.774;8.732;2023-07-08T04:41:49;5.63;;;5.13;;
8001;SDS011;4046;48.774;8.732;2023-07-08T04:44:15;5.70;;;5.20;;
8001;SDS011;4046;48.774;8.732;2023-07-08T04:49:19;5.20;;;4.80;;
8001;SDS011;4046;48.774;8.732;2023-07-08T04:51:46;5.40;;;5.00;;
8001;SDS011;4046;48.774;8.732;2023-07-08T04:54:12;5.57;;;5.07;;
8001;SDS011;4046;48.774;8.732;2023-07-08T04:59:08;5.37;;;4.87;;
8001;SDS011;4046;48.774;8.732;2023-07-08T05:01:36;5.67;;;5.17;;
8001;SDS011;4046;48.774;8.732;2023-07-08T05:04:02;4.87;;;4.47;;
8001;SDS011;4046;48.774;8.732;2023-07-08T05:06:34;5.60;;;5.10;;
8001;SDS011;4046;48.774;8.732;2023-07-08T05:09:00;5.13;;;4.63;;
8001;SDS011;4046;48.774;8.732;2023-07-08T05:11:27;5.40;;;5.00;;
8001;SDS011;4046;48.774;8.732;2023-07-08T05:13:53;6.33;;;5.73;;
8001;SDS011;4046;48.774;8.732;2023-07-08T05:16:19;4.90;;;4.47;;
8001;SDS011;4046;48.774;8.732;2023-07-08T05:18:45;5.20;;;4.80;;
8001;SDS011;4046;48.774;8.732;2023-07-08T05:21:11;5.10;;;4.70;;
8001;SDS011;4046;48.774;8.732;2023-07-08T05:23:37;5.23;;;4.73;;
8001;SDS011;4046;48.774;8.732;2023-07-08T05:26:04;5.00;;;4.50;;
8001;SDS011;4046;48.774;8.732;2023-07-08T05:28:31;5.70;;;5.23;;
8001;SDS011;4046;48.774;8.732;2023-07-08T05:30:57;5.30;;;4.80;;
8001;SDS011;4046;48.774;8.732;2023-07-08T05:33:23;5.87;;;5.47;;
8001;SDS011;4046;48.774;8.732;2023-07-08T05:35:51;4.70;;;4.20;;
8001;SDS011;4046;48.774;8.732;2023-07-08T05:38:17;5.33;;;4.93;;
8001;SDS011;4046;48.774;8.732;2023-07-08T05:40:47;5.33;;;4.93;;
8001;SDS011;4046;48.774;8.732;2023-07-08T05:43:14;5.30;;;4.80;;
8001;SDS011;4046;48.774;8.732;2023-07-08T05:45:41;5.60;;;5.10;;
8001;SDS011;4046;48.774;8.732;2023-07-08T05:48:06;5.87;;;5.37;;
8001;SDS011;4046;48.774;8.732;2023-07-08T05:50:32;5.07;;;4.67;;
8001;SDS011;4046;48.774;8.732;2023-07-08T05:52:58;5.57;;;5.10;;
8001;SDS011;4046;48.774;8.732;2023-07-08T05:55:23;5.73;;;5.23;;
8001;SDS011;4046;48.774;8.732;2023-07-08T05:57:49;5.30;;;4.90;;
8001;SDS011;4046;48.774;8.732;2023-07-08T06:00:15;5.50;;;5.00;;
8001;SDS011;4046;48.774;8.732;2023-07-08T06:02:40;4.50;;;4.20;;
8001;SDS011;4046;48.774;8.732;2023-07-08T06:05:06;5.50;;;5.10;;
8001;SDS011;4046;48.774;8.732;2023-07-08T06:07:32;5.83;;;5.33;;
8001;SDS011;4046;48.774;8.732;2023-07-08T06:09:58;4.67;;;4.27;;
8001;SDS011;4046;48.774;8.732;2023-07-08T06:12:24;5.30;;;4.83;;
8001;SDS011;4046;48.774;8.732;2023-07-08T06:14:50;5.37;;;4.87;;
8001;SDS011;4046;48.774;8.732;2023-07-08T06:17:17;5.70;;;5.20;;
8001;SDS011;4046;48.774;8.732;2023-07-08T06:19:43;5.60;;;5.10;;
8001;SDS011;4046;48.774;8.732;2023-07-08T06:22:09;5.50;;;5.10;;
8001;SDS011;4046;48.774;8.732;2023-07-08T06:24:38;5.47;;;5.03;;
8001;SDS011;4046;48.774;8.732;2023-07-08T06:27:04;5.10;;;4.70;;
8001;SDS011;4046;48.774;8.732;2023-07-08T06:29:30;5.20;;;4.80;;
8001;SDS011;4046;48.774;8.732;2023-07-08T06:31:56;5.47;;;4.97;;
8001;SDS011;4046;48.774;8.732;2023-07-08T06:34:22;5.77;;;4.77;;
8001;SDS011;4046;48.774;8.732;2023-07-08T06:36:49;5.53;;;5.13;;
8001;SDS011;4046;48.774;8.732;2023-07-08T06:39:15;5.33;;;4.93;;
8001;SDS011;4046;48.774;8.732;2023-07-08T06:41:42;5.30;;;4.80;;
8001;SDS011;4046;48.774;8.732;2023-07-08T06:44:09;5.50;;;5.00;;
8001;SDS011;4046;48.774;8.732;2023-07-08T06:46:35;5.37;;;4.87;;
8001;SDS011;4046;48.774;8.732;2023-07-08T06:49:01;5.60;;;5.20;;
8001;SDS011;4046;48.774;8.732;2023-07-08T06:51:27;5.07;;;4.67;;
8001;SDS011;4046;48.774;8.732;2023-07-08T06:53:53;5.50;;;5.00;;
8001;SDS011;4046;48.774;8.732;2023-07-08T06:56:19;5.00;;;4.60;;
8001;SDS011;4046;48.774;8.732;2023-07-08T06:58:45;5.37;;;4.97;;
8001;SDS011;4046;48.774;8.732;2023-07-08T07:01:13;5.30;;;4.90;;
8001;SDS011;4046;48.774;8.732;2023-07-08T07:03:40;5.80;;;4.90;;
8001;SDS011;4046;48.774;8.732;2023-07-08T07:06:06;5.43;;;4.93;;
8001;SDS011;4046;48.774;8.732;2023-07-08T07:08:31;5.27;;;4.87;;
8001;SDS011;4046;48.774;8.732;2023-07-08T07:10:57;5.00;;;4.60;;
8001;SDS011;4046;48.774;8.732;2023-07-08T07:13:23;4.97;;;4.57;;
8001;SDS011;4046;48.774;8.732;2023-07-08T07:15:49;4.97;;;4.50;;
8001;SDS011;4046;48.774;8.732;2023-07-08T07:18:14;5.10;;;4.70;;
8001;SDS011;4046;48.774;8.732;2023-07-08T07:20:46;5.07;;;4.60;;
8001;SDS011;4046;48.774;8.732;2023-07-08T07:23:19;5.03;;;4.17;;
8001;SDS011;4046;48.774;8.732;2023-07-08T07:25:45;5.17;;;4.77;;
8001;SDS011;4046;48.774;8.732;2023-07-08T07:28:13;5.03;;;4.63;;
8001;SDS011;4046;48.774;8.732;2023-07-08T07:30:44;5.13;;;4.73;;
8001;SDS011;4046;48.774;8.732;2023-07-08T07:33:11;4.97;;;4.57;;
8001;SDS011;4046;48.774;8.732;2023-07-08T07:35:42;5.00;;;4.60;;
8001;SDS011;4046;48.774;8.732;2023-07-08T07:38:08;4.67;;;4.27;;
8001;SDS011;4046;48.774;8.732;2023-07-08T07:40:34;4.87;;;4.47;;
8001;SDS011;4046;48.774;8.732;2023-07-08T07:43:00;4.70;;;4.30;;
8001;SDS011;4046;48.774;8.732;2023-07-08T07:45:26;5.30;;;4.90;;
8001;SDS011;4046;48.774;8.732;2023-07-08T07:47:52;5.20;;;4.80;;
8001;SDS011;4046;48.774;8.732;2023-07-08T07:50:18;4.10;;;3.80;;
8001;SDS011;4046;48.774;8.732;2023-07-08T07:52:44;4.73;;;4.33;;
8001;SDS011;4046;48.774;8.732;2023-07-08T07:55:10;4.63;;;4.33;;
8001;SDS011;4046;48.774;8.732;2023-07-08T07:57:36;5.10;;;4.70;;
8001;SDS011;4046;48.774;8.732;2023-07-08T08:00:02;4.40;;;4.10;;
8001;SDS011;4046;48.774;8.732;2023-07-08T08:02:28;4.90;;;4.50;;
8001;SDS011;4046;48.774;8.732;2023-07-08T08:04:56;4.87;;;4.47;;
8001;SDS011;4046;48.774;8.732;2023-07-08T08:07:22;4.87;;;4.53;;
8001;SDS011;4046;48.774;8.732;2023-07-08T08:09:48;4.57;;;4.23;;
8001;SDS011;4046;48.774;8.732;2023-07-08T08:12:14;4.60;;;4.27;;
8001;SDS011;4046;48.774;8.732;2023-07-08T08:14:39;4.70;;;4.30;;
8001;SDS011;4046;48.774;8.732;2023-07-08T08:17:06;4.80;;;4.40;;
8001;SDS011;4046;48.774;8.732;2023-07-08T08:19:32;4.70;;;4.30;;
8001;SDS011;4046;48.774;8.732;2023-07-08T08:21:57;4.77;;;4.47;;
8001;SDS011;4046;48.774;8.732;2023-07-08T08:24:23;5.03;;;4.63;;
8001;SDS011;4046;48.774;8.732;2023-07-08T08:26:49;4.30;;;4.00;;
8001;SDS011;4046;48.774;8.732;2023-07-08T08:29:15;6.20;;;4.27;;
8001;SDS011;4046;48.774;8.732;2023-07-08T08:31:41;4.70;;;4.30;;
8001;SDS011;4046;48.774;8.732;2023-07-08T08:34:06;4.90;;;4.40;;
8001;SDS011;4046;48.774;8.732;2023-07-08T08:36:33;4.30;;;4.00;;
8001;SDS011;4046;48.774;8.732;2023-07-08T08:38:59;4.60;;;4.20;;
8001;SDS011;4046;48.774;8.732;2023-07-08T08:41:31;8.00;;;4.60;;
8001;SDS011;4046;48.774;8.732;2023-07-08T08:43:58;4.40;;;4.00;;
8001;SDS011;4046;48.774;8.732;2023-07-08T08:46:32;4.40;;;4.00;;
8001;SDS011;4046;48.774;8.732;2023-07-08T08:52:06;5.30;;;4.33;;
8001;SDS011;4046;48.774;8.732;2023-07-08T08:54:32;4.90;;;4.50;;
8001;SDS011;4046;48.774;8.732;2023-07-08T08:57:00;5.13;;;4.30;;
8001;SDS011;4046;48.774;8.732;2023-07-08T08:59:34;4.60;;;4.13;;
8001;SDS011;4046;48.774;8.732;2023-07-08T09:05:00;4.93;;;4.50;;
8001;SDS011;4046;48.774;8.732;2023-07-08T09:07:28;5.13;;;4.73;;
8001;SDS011;4046;48.774;8.732;2023-07-08T09:10:04;4.57;;;4.17;;
8001;SDS011;4046;48.774;8.732;2023-07-08T09:12:38;4.80;;;4.40;;
8001;SDS011;4046;48.774;8.732;2023-07-08T09:15:14;4.87;;;4.47;;
8001;SDS011;4046;48.774;8.732;2023-07-08T09:17:41;4.87;;;4.37;;
8001;SDS011;4046;48.774;8.732;2023-07-08T09:20:26;4.40;;;3.90;;
8001;SDS011;4046;48.774;8.732;2023-07-08T09:22:58;9.00;;;4.93;;
8001;SDS011;4046;48.774;8.732;2023-07-08T09:25:46;4.50;;;4.20;;
8001;SDS011;4046;48.774;8.732;2023-07-08T09:28:35;4.73;;;4.33;;
8001;SDS011;4046;48.774;8.732;2023-07-08T09:31:01;4.90;;;4.60;;
8001;SDS011;4046;48.774;8.732;2023-07-08T09:33:31;4.20;;;3.80;;
8001;SDS011;4046;48.774;8.732;2023-07-08T09:36:02;4.00;;;3.70;;
8001;SDS011;4046;48.774;8.732;2023-07-08T09:38:47;4.10;;;3.70;;
8001;SDS011;4046;48.774;8.732;2023-07-08T09:41:17;4.40;;;4.10;;
8001;SDS011;4046;48.774;8.732;2023-07-08T09:44:03;4.63;;;4.23;;
8001;SDS011;4046;48.774;8.732;2023-07-08T09:46:37;4.70;;;4.30;;
8001;SDS011;4046;48.774;8.732;2023-07-08T09:49:23;4.40;;;4.00;;
8001;SDS011;4046;48.774;8.732;2023-07-08T09:51:49;4.00;;;3.70;;
8001;SDS011;4046;48.774;8.732;2023-07-08T09:54:17;4.00;;;3.70;;
8001;SDS011;4046;48.774;8.732;2023-07-08T09:56:44;3.90;;;3.60;;
8001;SDS011;4046;48.774;8.732;2023-07-08T09:59:18;5.30;;;3.80;;
8001;SDS011;4046;48.774;8.732;2023-07-08T10:01:46;4.17;;;3.77;;
8001;SDS011;4046;48.774;8.732;2023-07-08T10:04:15;4.17;;;3.87;;
8001;SDS011;4046;48.774;8.732;2023-07-08T10:06:44;3.97;;;3.67;;
8001;SDS011;4046;48.774;8.732;2023-07-08T10:09:14;4.03;;;3.73;;
8001;SDS011;4046;48.774;8.732;2023-07-08T10:11:49;3.90;;;3.60;;
8001;SDS011;4046;48.774;8.732;2023-07-08T10:16:51;4.17;;;3.87;;
8001;SDS011;4046;48.774;8.732;2023-07-08T10:19:18;4.03;;;3.63;;
8001;SDS011;4046;48.774;8.732;2023-07-08T10:27:43;3.47;;;3.23;;
8001;SDS011;4046;48.774;8.732;2023-07-08T10:35:35;3.50;;;3.20;;
8001;SDS011;4046;48.774;8.732;2023-07-08T10:41:46;4.10;;;3.80;;
8001;SDS011;4046;48.774;8.732;2023-07-08T10:55:39;4.00;;;3.70;;
8001;SDS011;4046;48.774;8.732;2023-07-08T11:06:12;4.00;;;3.70;;
8001;SDS011;4046;48.774;8.732;2023-07-08T11:08:57;4.30;;;3.20;;
8001;SDS011;4046;48.774;8.732;2023-07-08T11:16:50;3.97;;;3.53;;
8001;SDS011;4046;48.774;8.732;2023-07-08T11:19:34;3.27;;;2.97;;
8001;SDS011;4046;48.774;8.732;2023-07-08T11:22:03;3.07;;;2.87;;
8001;SDS011;4046;48.774;8.732;2023-07-08T11:24:38;3.80;;;3.40;;
8001;SDS011;4046;48.774;8.732;2023-07-08T11:27:26;3.43;;;3.20;;
8001;SDS011;4046;48.774;8.732;2023-07-08T11:30:04;3.43;;;3.13;;
8001;SDS011;4046;48.774;8.732;2023-07-08T11:32:33;3.57;;;3.27;;
8001;SDS011;4046;48.774;8.732;2023-07-08T11:35:02;3.67;;;3.37;;
8001;SDS011;4046;48.774;8.732;2023-07-08T11:37:30;3.43;;;3.20;;
8001;SDS011;4046;48.774;8.732;2023-07-08T11:40:09;3.60;;;3.30;;
8001;SDS011;4046;48.774;8.732;2023-07-08T11:42:49;3.33;;;3.03;;
8001;SDS011;4046;48.774;8.732;2023-07-08T11:45:24;3.40;;;3.20;;
8001;SDS011;4046;48.774;8.732;2023-07-08T11:48:17;4.77;;;3.13;;
8001;SDS011;4046;48.774;8.732;2023-07-08T11:50:47;3.63;;;3.30;;
8001;SDS011;4046;48.774;8.732;2023-07-08T11:58:54;3.17;;;2.97;;
8001;SDS011;4046;48.774;8.732;2023-07-08T12:01:38;3.43;;;3.13;;
8001;SDS011;4046;48.774;8.732;2023-07-08T12:04:20;4.00;;;3.40;;
8001;SDS011;4046;48.774;8.732;2023-07-08T12:07:03;3.47;;;3.27;;
8001;SDS011;4046;48.774;8.732;2023-07-08T12:09:38;2.93;;;2.73;;
8001;SDS011;4046;48.774;8.732;2023-07-08T12:12:16;3.57;;;3.27;;
8001;SDS011;4046;48.774;8.732;2023-07-08T12:17:48;3.40;;;3.20;;
8001;SDS011;4046;48.774;8.732;2023-07-08T12:20:25;3.37;;;3.17;;
8001;SDS011;4046;48.774;8.732;2023-07-08T12:22:55;3.40;;;3.20;;
8001;SDS011;4046;48.774;8.732;2023-07-08T12:25:22;3.13;;;2.93;;
8001;SDS011;4046;48.774;8.732;2023-07-08T12:27:52;3.23;;;2.93;;
8001;SDS011;4046;48.774;8.732;2023-07-08T12:30:18;3.60;;;3.30;;
8001;SDS011;4046;48.774;8.732;2023-07-08T12:32:44;3.77;;;3.47;;
8001;SDS011;4046;48.774;8.732;2023-07-08T12:35:19;2.97;;;2.77;;
8001;SDS011;4046;48.774;8.732;2023-07-08T12:37:53;3.13;;;2.93;;
8001;SDS011;4046;48.774;8.732;2023-07-08T12:40:22;3.00;;;2.80;;
8001;SDS011;4046;48.774;8.732;2023-07-08T12:42:51;3.50;;;3.20;;
8001;SDS011;4046;48.774;8.732;2023-07-08T12:45:19;3.30;;;3.10;;
8001;SDS011;4046;48.774;8.732;2023-07-08T12:47:46;3.20;;;2.90;;
8001;SDS011;4046;48.774;8.732;2023-07-08T12:50:13;3.00;;;2.77;;
8001;SDS011;4046;48.774;8.732;2023-07-08T12:52:42;3.30;;;3.10;;
8001;SDS011;4046;48.774;8.732;2023-07-08T12:55:09;3.37;;;3.13;;
8001;SDS011;4046;48.774;8.732;2023-07-08T12:57:36;4.00;;;3.30;;
8001;SDS011;4046;48.774;8.732;2023-07-08T13:00:03;3.37;;;3.07;;
8001;SDS011;4046;48.774;8.732;2023-07-08T13:02:30;3.60;;;3.30;;
8001;SDS011;4046;48.774;8.732;2023-07-08T13:04:59;3.43;;;3.13;;
8001;SDS011;4046;48.774;8.732;2023-07-08T13:07:35;2.50;;;2.30;;
8001;SDS011;4046;48.774;8.732;2023-07-08T13:10:06;2.67;;;2.47;;
8001;SDS011;4046;48.774;8.732;2023-07-08T13:12:40;3.40;;;3.10;;
8001;SDS011;4046;48.774;8.732;2023-07-08T13:15:08;3.30;;;3.10;;
8001;SDS011;4046;48.774;8.732;2023-07-08T13:17:41;3.40;;;3.10;;
8001;SDS011;4046;48.774;8.732;2023-07-08T13:20:10;3.03;;;2.83;;
8001;SDS011;4046;48.774;8.732;2023-07-08T13:22:40;3.40;;;3.10;;
8001;SDS011;4046;48.774;8.732;2023-07-08T13:25:13;3.20;;;2.90;;
8001;SDS011;4046;48.774;8.732;2023-07-08T13:27:41;2.50;;;2.30;;
8001;SDS011;4046;48.774;8.732;2023-07-08T13:30:16;3.33;;;3.03;;
8001;SDS011;4046;48.774;8.732;2023-07-08T13:32:43;3.57;;;3.27;;
8001;SDS011;4046;48.774;8.732;2023-07-08T13:38:15;3.53;;;3.23;;
8001;SDS011;4046;48.774;8.732;2023-07-08T13:40:49;3.03;;;2.83;;
8001;SDS011;4046;48.774;8.732;2023-07-08T13:43:24;2.90;;;2.70;;
8001;SDS011;4046;48.774;8.732;2023-07-08T13:45:51;3.70;;;3.40;;
8001;SDS011;4046;48.774;8.732;2023-07-08T13:51:05;2.80;;;2.47;;
8001;SDS011;4046;48.774;8.732;2023-07-08T13:53:42;3.70;;;3.40;;
8001;SDS011;4046;48.774;8.732;2023-07-08T13:56:22;3.00;;;2.80;;
8001;SDS011;4046;48.774;8.732;2023-07-08T13:58:51;3.43;;;3.10;;
8001;SDS011;4046;48.774;8.732;2023-07-08T14:01:19;2.80;;;2.60;;
8001;SDS011;4046;48.774;8.732;2023-07-08T14:03:47;3.00;;;2.80;;
8001;SDS011;4046;48.774;8.732;2023-07-08T14:06:15;3.37;;;3.10;;
8001;SDS011;4046;48.774;8.732;2023-07-08T14:08:49;3.10;;;2.80;;
8001;SDS011;4046;48.774;8.732;2023-07-08T14:11:21;3.37;;;3.07;;
8001;SDS011;4046;48.774;8.732;2023-07-08T14:13:47;3.60;;;3.30;;
8001;SDS011;4046;48.774;8.732;2023-07-08T14:16:24;3.40;;;3.03;;
8001;SDS011;4046;48.774;8.732;2023-07-08T14:18:56;2.90;;;2.70;;
8001;SDS011;4046;48.774;8.732;2023-07-08T14:21:24;3.37;;;3.07;;
8001;SDS011;4046;48.774;8.732;2023-07-08T14:23:50;3.50;;;2.90;;
8001;SDS011;4046;48.774;8.732;2023-07-08T14:26:16;3.03;;;2.83;;
8001;SDS011;4046;48.774;8.732;2023-07-08T14:28:42;3.07;;;2.87;;
8001;SDS011;4046;48.774;8.732;2023-07-08T14:31:11;3.47;;;3.17;;
8001;SDS011;4046;48.774;8.732;2023-07-08T14:33:46;2.83;;;2.63;;
8001;SDS011;4046;48.774;8.732;2023-07-08T14:36:13;3.23;;;2.90;;
8001;SDS011;4046;48.774;8.732;2023-07-08T14:38:43;3.63;;;3.33;;
8001;SDS011;4046;48.774;8.732;2023-07-08T14:41:09;2.97;;;2.77;;
8001;SDS011;4046;48.774;8.732;2023-07-08T14:43:35;3.00;;;2.80;;
8001;SDS011;4046;48.774;8.732;2023-07-08T14:46:04;2.53;;;2.33;;
8001;SDS011;4046;48.774;8.732;2023-07-08T14:48:32;3.07;;;2.87;;
8001;SDS011;4046;48.774;8.732;2023-07-08T14:50:58;3.37;;;3.10;;
8001;SDS011;4046;48.774;8.732;2023-07-08T14:53:24;3.20;;;2.90;;
8001;SDS011;4046;48.774;8.732;2023-07-08T14:55:53;2.80;;;2.40;;
8001;SDS011;4046;48.774;8.732;2023-07-08T15:00:56;2.80;;;2.60;;
8001;SDS011;4046;48.774;8.732;2023-07-08T15:03:23;3.00;;;2.80;;
8001;SDS011;4046;48.774;8.732;2023-07-08T15:05:50;3.40;;;2.90;;
8001;SDS011;4046;48.774;8.732;2023-07-08T15:08:16;2.90;;;2.70;;
8001;SDS011;4046;48.774;8.732;2023-07-08T15:10:44;3.10;;;2.80;;
8001;SDS011;4046;48.774;8.732;2023-07-08T15:13:14;2.80;;;2.60;;
8001;SDS011;4046;48.774;8.732;2023-07-08T15:15:42;2.90;;;2.70;;
8001;SDS011;4046;48.774;8.732;2023-07-08T15:18:10;2.80;;;2.60;;
8001;SDS011;4046;48.774;8.732;2023-07-08T15:20:37;2.60;;;2.40;;
8001;SDS011;4046;48.774;8.732;2023-07-08T15:23:03;2.73;;;2.53;;
8001;SDS011;4046;48.774;8.732;2023-07-08T15:25:29;3.07;;;2.87;;
8001;SDS011;4046;48.774;8.732;2023-07-08T15:27:56;3.00;;;2.80;;
8001;SDS011;4046;48.774;8.732;2023-07-08T15:30:23;2.93;;;2.73;;
8001;SDS011;4046;48.774;8.732;2023-07-08T15:32:51;2.83;;;2.63;;
8001;SDS011;4046;48.774;8.732;2023-07-08T15:35:19;2.90;;;2.70;;
8001;SDS011;4046;48.774;8.732;2023-07-08T15:37:46;2.80;;;2.60;;
8001;SDS011;4046;48.774;8.732;2023-07-08T15:40:14;2.77;;;2.57;;
8001;SDS011;4046;48.774;8.732;2023-07-08T15:42:41;3.83;;;2.90;;
8001;SDS011;4046;48.774;8.732;2023-07-08T15:47:39;2.87;;;2.67;;
8001;SDS011;4046;48.774;8.732;2023-07-08T15:50:12;3.30;;;2.90;;
8001;SDS011;4046;48.774;8.732;2023-07-08T15:52:40;2.70;;;2.50;;
8001;SDS011;4046;48.774;8.732;2023-07-08T15:55:07;2.80;;;2.60;;
8001;SDS011;4046;48.774;8.732;2023-07-08T15:57:36;3.37;;;3.10;;
8001;SDS011;4046;48.774;8.732;2023-07-08T16:03:07;3.10;;;2.90;;
8001;SDS011;4046;48.774;8.732;2023-07-08T16:05:42;2.73;;;2.53;;
8001;SDS011;4046;48.774;8.732;2023-07-08T16:08:08;3.17;;;2.50;;
8001;SDS011;4046;48.774;8.732;2023-07-08T16:10:34;2.67;;;2.47;;
8001;SDS011;4046;48.774;8.732;2023-07-08T16:13:02;3.10;;;2.90;;
8001;SDS011;4046;48.774;8.732;2023-07-08T16:15:33;2.80;;;2.60;;
8001;SDS011;4046;48.774;8.732;2023-07-08T16:18:01;3.17;;;2.83;;
8001;SDS011;4046;48.774;8.732;2023-07-08T16:20:28;2.80;;;2.60;;
8001;SDS011;4046;48.774;8.732;2023-07-08T16:22:57;2.80;;;2.60;;
8001;SDS011;4046;48.774;8.732;2023-07-08T16:25:27;2.80;;;2.60;;
8001;SDS011;4046;48.774;8.732;2023-07-08T16:27:55;2.70;;;2.50;;
8001;SDS011;4046;48.774;8.732;2023-07-08T16:30:23;3.20;;;2.90;;
8001;SDS011;4046;48.774;8.732;2023-07-08T16:32:51;2.60;;;2.40;;
8001;SDS011;4046;48.774;8.732;2023-07-08T16:35:18;3.13;;;2.83;;
8001;SDS011;4046;48.774;8.732;2023-07-08T16:37:50;2.90;;;2.70;;
8001;SDS011;4046;48.774;8.732;2023-07-08T16:40:18;2.40;;;2.20;;
8001;SDS011;4046;48.774;8.732;2023-07-08T16:42:46;3.57;;;3.30;;
8001;SDS011;4046;48.774;8.732;2023-07-08T16:45:15;2.83;;;2.63;;